Time;durP1;ratioP1;P1;durP2;ratioP2;P2;SDS_P1;SDS_P2;PMS_P1;PMS_P2;Temp;Humidity;BMP_temperature;BMP_pressure;BME280_temperature;BME280_humidity;BME280_pressure;Samples;Min_cycle;Max_cycle;Signal;HPM_P1;HPM_P2
2021/03/25 00:01:48;;;;;;;15.67;11.53;;;;;;;4.21;58.45;99391.44;5077642;28;40973;-75
2021/03/25 00:04:16;;;;;;;14.53;11.50;;;;;;;4.07;58.42;99372.66;5111785;28;42158;-75
2021/03/25 00:06:47;;;;;;;16.23;11.43;;;;;;;4.16;58.78;99385.50;5093356;28;42639;-75
2021/03/25 00:09:16;;;;;;;13.93;9.80;;;;;;;4.15;58.73;99386.41;5077888;28;41296;-74
2021/03/25 00:11:44;;;;;;;13.80;11.13;;;;;;;4.09;58.80;99381.31;5077346;28;39971;-76
2021/03/25 00:14:11;;;;;;;20.00;13.57;;;;;;;4.11;58.57;99390.00;5093193;28;42430;-74
2021/03/25 00:16:38;;;;;;;16.90;11.73;;;;;;;4.07;58.72;99388.38;5093688;28;43487;-74
2021/03/25 00:19:07;;;;;;;17.07;12.10;;;;;;;3.97;58.55;99378.13;5111849;28;42372;-74
2021/03/25 00:21:35;;;;;;;14.20;11.13;;;;;;;3.86;58.62;99374.09;5092984;28;39976;-75
2021/03/25 00:24:04;;;;;;;15.30;11.03;;;;;;;3.84;58.37;99379.38;5111234;28;41710;-76
2021/03/25 00:26:31;;;;;;;13.60;10.77;;;;;;;3.91;58.63;99391.41;5093348;28;43730;-74
2021/03/25 00:28:59;;;;;;;14.57;10.27;;;;;;;3.78;58.76;99374.31;5094212;28;41235;-74
2021/03/25 00:31:26;;;;;;;13.97;10.87;;;;;;;3.80;59.03;99376.88;5093447;28;40093;-74
2021/03/25 00:33:53;;;;;;;15.50;10.80;;;;;;;3.79;59.12;99383.88;5093669;28;42298;-75
2021/03/25 00:36:21;;;;;;;16.17;11.63;;;;;;;3.79;59.14;99383.03;5077179;28;42908;-75
2021/03/25 00:38:48;;;;;;;13.67;10.27;;;;;;;3.75;59.24;99387.47;5076735;28;41121;-75
2021/03/25 00:41:16;;;;;;;12.90;9.63;;;;;;;3.67;59.55;99373.75;5111100;28;39909;-75
2021/03/25 00:43:43;;;;;;;15.60;11.23;;;;;;;3.73;59.51;99389.28;5092855;28;41688;-75
2021/03/25 00:46:10;;;;;;;13.03;10.87;;;;;;;3.70;59.58;99383.28;5076866;28;43101;-75
2021/03/25 00:48:37;;;;;;;14.83;11.50;;;;;;;3.66;59.70;99373.78;5077005;28;41306;-75
2021/03/25 00:51:04;;;;;;;15.60;11.43;;;;;;;3.66;60.19;99366.78;5093751;28;39913;-75
2021/03/25 00:53:35;;;;;;;15.10;11.00;;;;;;;3.65;59.86;99375.53;5093096;28;42479;-75
2021/03/25 00:56:04;;;;;;;16.33;11.33;;;;;;;3.63;60.19;99376.47;5093591;28;42064;-76
2021/03/25 00:58:33;;;;;;;13.97;9.93;;;;;;;3.59;60.16;99376.53;5092919;28;42986;-75
2021/03/25 01:01:00;;;;;;;14.80;10.87;;;;;;;3.48;60.03;99357.63;5092706;28;40541;-73
2021/03/25 01:03:28;;;;;;;14.23;10.17;;;;;;;3.52;60.37;99368.88;5092457;28;42518;-74
2021/03/25 01:05:56;;;;;;;16.73;10.87;;;;;;;3.54;60.51;99372.34;5075830;28;42730;-75
2021/03/25 01:08:24;;;;;;;15.27;10.90;;;;;;;3.52;60.38;99374.13;5093357;28;42035;-74
2021/03/25 01:10:56;;;;;;;16.43;10.33;;;;;;;3.35;60.44;99348.38;5092544;28;40135;-74
2021/03/25 01:13:27;;;;;;;16.23;11.00;;;;;;;3.47;60.35;99370.75;5110152;28;41793;-75
2021/03/25 01:15:55;;;;;;;17.17;10.87;;;;;;;3.42;60.32;99372.66;5092896;28;42634;-75
2021/03/25 01:18:23;;;;;;;12.53;9.03;;;;;;;3.29;60.10;99355.53;5093575;28;42427;-75
2021/03/25 01:20:50;;;;;;;15.40;10.57;;;;;;;3.36;60.21;99380.66;5076249;28;39059;-75
2021/03/25 01:23:18;;;;;;;17.73;12.07;;;;;;;3.34;60.30;99369.38;5092716;28;41696;-75
2021/03/25 01:25:47;;;;;;;19.57;11.80;;;;;;;3.31;60.43;99372.06;5091882;28;42479;-75
2021/03/25 01:28:16;;;;;;;20.77;12.83;;;;;;;3.22;61.40;99353.06;5092410;28;42178;-74
2021/03/25 01:30:48;;;;;;;17.13;10.90;;;;;;;3.27;61.51;99358.19;5092544;28;40528;-75
2021/03/25 01:33:18;;;;;;;14.93;11.20;;;;;;;3.26;61.58;99361.69;5092454;28;41701;-75
2021/03/25 01:35:46;;;;;;;16.40;11.37;;;;;;;3.25;61.64;99366.06;5092854;28;42398;-74
2021/03/25 01:38:18;;;;;;;13.93;9.80;;;;;;;3.18;62.45;99348.81;5092104;28;42762;-75
2021/03/25 01:40:49;;;;;;;16.80;11.50;;;;;;;3.22;62.02;99355.66;5093342;28;40342;-74
2021/03/25 01:43:27;;;;;;;16.93;11.50;;;;;;;3.19;61.98;99361.00;5110596;28;41409;-75
2021/03/25 01:46:15;;;;;;;17.50;11.90;;;;;;;3.16;62.07;99355.84;5109706;28;42531;-75
2021/03/25 01:48:47;;;;;;;17.33;11.30;;;;;;;3.14;61.68;99356.78;5056123;28;42392;-76
2021/03/25 01:51:40;;;;;;;17.50;11.50;;;;;;;2.96;63.05;99321.47;5055830;28;38938;-75
2021/03/25 01:54:41;;;;;;;18.77;12.27;;;;;;;3.11;63.41;99347.22;5070660;28;41838;-74
2021/03/25 01:57:29;;;;;;;20.63;14.00;;;;;;;3.09;63.56;99338.56;5056030;28;41987;-74
2021/03/25 02:00:20;;;;;;;20.33;13.33;;;;;;;3.08;64.07;99336.00;5071885;28;42204;-74
2021/03/25 02:03:25;;;;;;;24.73;15.00;;;;;;;3.05;63.55;99336.94;5071520;28;40738;-76
2021/03/25 02:06:07;;;;;;;20.87;12.47;;;;;;;2.97;63.32;99333.63;5071173;28;42366;-74
2021/03/25 02:08:47;;;;;;;20.60;12.60;;;;;;;2.89;62.99;99315.50;5055943;28;43089;-74
2021/03/25 02:11:22;;;;;;;17.10;11.30;;;;;;;2.76;63.11;99294.91;5071831;28;43054;-74
2021/03/25 02:14:00;;;;;;;27.57;15.37;;;;;;;2.90;64.35;99316.38;5088199;28;40719;-75
2021/03/25 02:16:38;;;;;;;23.50;13.90;;;;;;;2.92;63.78;99326.78;5054362;28;40924;-74
2021/03/25 02:19:53;;;;;;;21.57;13.00;;;;;;;2.82;63.62;99311.34;5092556;28;42297;-75
2021/03/25 02:22:39;;;;;;;18.80;12.33;;;;;;;2.85;63.41;99329.53;5075253;28;41667;-75
2021/03/25 02:25:10;;;;;;;17.70;12.33;;;;;;;2.83;63.07;99325.28;5057964;28;39272;-74
2021/03/25 02:28:01;;;;;;;18.43;11.77;;;;;;;2.81;63.16;99327.06;5074565;28;41734;-75
2021/03/25 02:30:38;;;;;;;24.03;14.63;;;;;;;2.77;63.03;99335.88;5074030;28;43454;-75
2021/03/25 02:33:12;;;;;;;17.20;11.43;;;;;;;2.73;63.05;99337.69;5092080;28;42207;-75
2021/03/25 02:35:47;;;;;;;18.50;12.70;;;;;;;2.69;63.02;99327.34;5074248;28;40898;-75
2021/03/25 02:38:20;;;;;;;17.43;11.50;;;;;;;2.65;63.07;99326.56;5091810;28;41770;-75
2021/03/25 02:40:55;;;;;;;15.83;10.60;;;;;;;2.59;63.61;99325.84;5057820;28;42680;-75
2021/03/25 02:43:33;;;;;;;17.00;11.23;;;;;;;2.56;63.57;99326.75;5076583;28;42739;-74
2021/03/25 02:46:05;;;;;;;16.17;11.23;;;;;;;2.57;63.50;99332.84;5094350;28;40566;-74
2021/03/25 02:48:36;;;;;;;16.53;11.53;;;;;;;2.53;63.48;99327.69;5094069;28;42358;-74
2021/03/25 02:51:09;;;;;;;15.73;10.90;;;;;;;2.51;63.40;99339.94;5094436;28;42718;-75
2021/03/25 02:53:40;;;;;;;18.40;11.97;;;;;;;2.48;63.22;99340.00;5093951;28;42193;-74
2021/03/25 02:56:15;;;;;;;20.00;13.17;;;;;;;2.45;63.20;99331.38;5094122;28;40207;-74
2021/03/25 02:58:47;;;;;;;20.43;11.63;;;;;;;2.43;63.29;99336.63;5077813;28;40778;-75
2021/03/25 03:01:16;;;;;;;19.63;13.80;;;;;;;2.35;63.31;99333.31;5111459;28;42601;-74
2021/03/25 03:03:50;;;;;;;15.13;10.53;;;;;;;2.37;63.32;99333.28;5094657;28;42124;-74
2021/03/25 03:06:28;;;;;;;14.13;9.70;;;;;;;2.35;63.92;99333.31;5112048;28;40505;-74
2021/03/25 03:09:07;;;;;;;18.13;12.27;;;;;;;2.34;63.98;99326.38;5093930;28;42508;-75
2021/03/25 03:11:45;;;;;;;15.67;10.53;;;;;;;2.31;63.96;99333.44;5071622;28;633741;-74
2021/03/25 03:14:22;;;;;;;16.57;11.13;;;;;;;2.31;63.85;99336.03;5094778;28;42064;-74
2021/03/25 03:16:53;;;;;;;17.10;11.20;;;;;;;2.27;63.56;99335.25;5078544;28;39502;-74
2021/03/25 03:19:27;;;;;;;15.27;11.70;;;;;;;2.24;63.75;99324.84;5094433;28;41269;-74
2021/03/25 03:21:57;;;;;;;15.20;10.80;;;;;;;2.23;63.86;99323.13;5078483;28;42803;-75
2021/03/25 03:24:38;;;;;;;16.30;11.07;;;;;;;2.21;64.58;99308.41;5094778;28;41394;-74
2021/03/25 03:27:20;;;;;;;17.77;11.67;;;;;;;2.16;64.00;99305.88;5094241;28;39526;-74
2021/03/25 03:29:50;;;;;;;15.53;11.10;;;;;;;2.18;63.88;99317.16;5093561;28;41652;-74
2021/03/25 03:32:24;;;;;;;17.93;11.07;;;;;;;2.16;64.00;99316.31;5094151;28;43272;-75
2021/03/25 03:34:59;;;;;;;17.80;11.70;;;;;;;2.14;64.36;99323.31;5111968;28;43037;-74
2021/03/25 03:37:33;;;;;;;18.43;12.37;;;;;;;2.10;64.30;99326.91;5094058;28;39627;-74
2021/03/25 03:40:18;;;;;;;14.77;10.13;;;;;;;2.03;64.08;99320.09;5094108;28;42410;-74
2021/03/25 03:42:47;;;;;;;16.60;11.97;;;;;;;2.00;64.59;99325.34;5095203;28;41743;-74
2021/03/25 03:45:22;;;;;;;17.03;11.43;;;;;;;1.99;64.33;99329.72;5093496;28;42360;-74
2021/03/25 03:48:04;;;;;;;15.50;11.63;;;;;;;1.95;64.50;99328.09;5093868;28;40695;-74
2021/03/25 03:50:40;;;;;;;20.07;12.23;;;;;;;1.95;64.39;99332.44;5093339;28;42438;-74
2021/03/25 03:53:07;;;;;;;17.43;11.80;;;;;;;1.94;64.61;99325.50;5078082;28;41707;-74
2021/03/25 03:55:35;;;;;;;21.77;13.37;;;;;;;1.93;64.70;99334.22;5093870;28;42343;-74
2021/03/25 03:58:11;;;;;;;18.30;12.17;;;;;;;1.92;64.90;99327.28;5094135;28;39688;-74
2021/03/25 04:00:43;;;;;;;14.87;10.80;;;;;;;1.90;64.81;99329.06;5094041;28;41659;-74
2021/03/25 04:03:20;;;;;;;13.93;9.33;;;;;;;1.89;65.11;99322.09;5094775;28;43217;-74
2021/03/25 04:06:11;;;;;;;19.07;12.37;;;;;;;1.87;65.58;99316.91;5094537;28;42280;-75
2021/03/25 04:08:57;;;;;;;16.80;12.00;;;;;;;1.87;65.82;99311.69;5077994;28;38959;-74
2021/03/25 04:11:32;;;;;;;14.77;10.57;;;;;;;1.90;66.11;99323.84;5093617;28;42447;-75
2021/03/25 04:14:04;;;;;;;17.07;12.20;;;;;;;1.88;65.79;99326.47;5093207;28;43956;-74
2021/03/25 04:16:40;;;;;;;15.97;10.53;;;;;;;1.86;65.42;99322.16;5077477;28;42471;-74
2021/03/25 04:19:13;;;;;;;14.77;10.90;;;;;;;1.74;65.30;99308.47;5077801;28;39978;-74
2021/03/25 04:21:55;;;;;;;12.23;9.57;;;;;;;1.70;65.15;99312.03;5077526;28;42546;-74
2021/03/25 04:24:25;;;;;;;16.77;11.43;;;;;;;1.67;64.95;99317.31;5093451;28;43503;-74
2021/03/25 04:27:06;;;;;;;13.77;9.87;;;;;;;1.66;65.10;99315.59;5093396;28;41771;-74
2021/03/25 04:29:37;;;;;;;19.77;13.17;;;;;;;1.59;65.12;99314.00;5093214;28;41193;-74
2021/03/25 04:32:05;;;;;;;14.63;9.93;;;;;;;1.61;65.17;99324.41;5111708;28;42159;-74
2021/03/25 04:34:32;;;;;;;14.13;9.20;;;;;;;1.64;65.06;99327.81;5077134;28;41731;-74
2021/03/25 04:37:02;;;;;;;17.50;12.43;;;;;;;1.62;65.17;99333.94;5093344;28;42048;-74
2021/03/25 04:39:30;;;;;;;13.93;9.90;;;;;;;1.57;64.99;99322.75;5111278;27;40497;-74
2021/03/25 04:41:58;;;;;;;15.30;10.20;;;;;;;1.55;64.93;99333.22;5092284;28;41384;-74
2021/03/25 04:44:33;;;;;;;15.20;10.20;;;;;;;1.46;65.09;99322.97;5110996;28;43489;-74
2021/03/25 04:47:07;;;;;;;16.37;12.30;;;;;;;1.49;64.97;99337.66;5092832;28;43491;-74
2021/03/25 04:49:37;;;;;;;16.90;11.50;;;;;;;1.47;65.10;99329.03;5076778;28;39166;-74
2021/03/25 04:52:09;;;;;;;16.50;10.00;;;;;;;1.46;65.24;99333.41;5092551;28;41045;-75
2021/03/25 04:54:38;;;;;;;16.30;10.47;;;;;;;1.41;65.13;99330.84;5093412;28;41808;-74
2021/03/25 04:57:12;;;;;;;13.47;9.30;;;;;;;1.34;64.78;99320.56;5092927;28;42063;-74
2021/03/25 04:59:40;;;;;;;16.13;10.43;;;;;;;1.41;64.81;99340.44;5093131;28;39794;-74
2021/03/25 05:02:09;;;;;;;13.20;10.70;;;;;;;1.41;64.83;99335.22;5092709;28;41802;-74
2021/03/25 05:04:41;;;;;;;15.00;9.37;;;;;;;1.39;64.89;99332.63;5093535;28;41992;-75
2021/03/25 05:07:15;;;;;;;15.87;10.10;;;;;;;1.40;65.28;99336.09;5092169;28;41938;-75
2021/03/25 05:09:42;;;;;;;19.63;12.20;;;;;;;1.04;65.16;99272.41;5092659;28;40591;-74
2021/03/25 05:12:14;;;;;;;16.03;11.40;;;;;;;1.41;65.27;99335.22;5093299;28;40654;-74
2021/03/25 05:14:42;;;;;;;17.67;11.53;;;;;;;1.39;65.32;99332.63;5110978;28;42665;-74
2021/03/25 05:17:23;;;;;;;13.63;9.80;;;;;;;1.35;65.47;99322.28;5092128;28;42272;-74
2021/03/25 05:19:56;;;;;;;17.50;11.40;;;;;;;1.40;65.47;99330.88;5110839;28;40170;-74
2021/03/25 05:22:31;;;;;;;18.70;11.13;;;;;;;1.41;65.58;99343.03;5076498;28;41520;-74
2021/03/25 05:25:07;;;;;;;20.03;13.27;;;;;;;1.33;65.47;99331.88;5110024;28;43258;-74
2021/03/25 05:27:42;;;;;;;17.13;11.40;;;;;;;1.43;65.46;99339.53;5092866;28;42936;-74
2021/03/25 05:30:14;;;;;;;17.70;11.00;;;;;;;1.46;65.63;99338.63;5110361;28;40604;-74
2021/03/25 05:32:44;;;;;;;21.33;12.50;;;;;;;1.49;65.57;99333.31;5093227;28;40887;-74
2021/03/25 05:35:19;;;;;;;16.07;10.87;;;;;;;1.53;65.60;99345.44;5092689;28;42181;-75
2021/03/25 05:37:48;;;;;;;15.00;10.83;;;;;;;1.58;65.65;99348.81;5093358;28;42621;-74
2021/03/25 05:40:22;;;;;;;17.00;10.17;;;;;;;1.61;65.44;99345.28;5110097;28;40192;-76
2021/03/25 05:42:58;;;;;;;14.03;10.43;;;;;;;1.67;65.42;99353.88;5092546;28;41356;-75
2021/03/25 05:45:38;;;;;;;13.67;10.03;;;;;;;1.40;65.24;99297.81;5109748;28;42290;-75
2021/03/25 05:48:29;;;;;;;18.00;10.83;;;;;;;1.78;65.36;99354.53;5110294;28;42251;-75
2021/03/25 05:51:03;;;;;;;14.27;10.10;;;;;;;1.86;64.96;99353.50;5091599;28;40792;-75
2021/03/25 05:53:45;;;;;;;15.43;10.57;;;;;;;1.95;64.98;99363.78;5110489;28;41400;-75
2021/03/25 05:56:29;;;;;;;13.93;9.67;;;;;;;2.03;64.89;99361.88;5091709;28;43154;-75
2021/03/25 05:58:59;;;;;;;11.77;8.80;;;;;;;2.11;64.55;99362.56;5055785;28;41491;-75
2021/03/25 06:01:51;;;;;;;15.43;11.23;;;;;;;2.22;64.67;99358.00;5055529;28;40094;-75
2021/03/25 06:04:20;;;;;;;15.03;10.10;;;;;;;2.33;64.25;99366.47;5087640;28;41687;-73
2021/03/25 06:06:59;;;;;;;68.43;41.20;;;;;;;2.45;64.22;99370.59;5107203;28;43976;-74
2021/03/25 06:09:41;;;;;;;33.27;20.70;;;;;;;2.53;64.16;99360.81;5108145;28;42770;-74
2021/03/25 06:12:17;;;;;;;24.93;15.57;;;;;;;2.73;63.73;99369.06;5073843;28;39966;-74
2021/03/25 06:14:59;;;;;;;22.87;15.03;;;;;;;2.88;63.65;99375.69;5107189;28;41540;-74
2021/03/25 06:17:55;;;;;;;23.07;14.60;;;;;;;3.06;63.68;99380.50;5069408;28;43306;-73
2021/03/25 06:20:50;;;;;;;17.60;12.30;;;;;;;3.22;63.62;99371.38;5069600;28;42631;-72
2021/03/25 06:23:39;;;;;;;22.37;13.97;;;;;;;3.39;63.71;99377.97;5072011;28;39952;-72
2021/03/25 06:26:21;;;;;;;18.93;11.93;;;;;;;3.54;63.53;99377.56;5069368;28;42625;-73
2021/03/25 06:28:51;;;;;;;15.77;11.53;;;;;;;3.71;63.29;99380.59;5070970;28;43352;-72
2021/03/25 06:31:39;;;;;;;16.93;12.63;;;;;;;3.89;63.18;99374.00;5054859;28;41275;-72
2021/03/25 06:34:12;;;;;;;19.03;13.93;;;;;;;4.06;62.90;99376.19;5089228;28;40788;-73
2021/03/25 06:36:45;;;;;;;18.13;11.53;;;;;;;4.22;62.76;99377.44;5071360;28;41506;-73
2021/03/25 06:39:29;;;;;;;16.27;11.10;;;;;;;4.34;62.74;99377.09;5082642;28;42659;-74
2021/03/25 06:42:05;;;;;;;17.43;12.33;;;;;;;4.52;62.44;99379.19;5090886;28;41960;-74
2021/03/25 06:44:40;;;;;;;17.83;12.53;;;;;;;4.65;62.58;99377.91;5091185;28;40754;-73
2021/03/25 06:47:18;;;;;;;21.10;13.13;;;;;;;4.80;62.29;99381.84;5108769;28;42207;-73
2021/03/25 06:49:50;;;;;;;19.13;13.60;;;;;;;5.02;62.14;99389.91;5090043;28;42821;-73
2021/03/25 06:52:26;;;;;;;18.03;13.27;;;;;;;5.15;61.82;99404.34;5089834;28;42021;-73
2021/03/25 06:55:00;;;;;;;18.87;13.93;;;;;;;5.16;61.54;99368.47;5108171;28;41593;-73
2021/03/25 06:57:38;;;;;;;18.50;14.20;;;;;;;5.41;61.56;99386.00;5109308;28;42321;-73
2021/03/25 07:00:07;;;;;;;20.37;13.67;;;;;;;5.61;61.23;99392.34;5090576;28;43405;-73
2021/03/25 07:02:37;;;;;;;17.93;12.67;;;;;;;5.80;61.13;99398.69;5091329;27;43020;-73
2021/03/25 07:05:08;;;;;;;20.70;14.23;;;;;;;5.97;61.04;99398.97;5093239;28;40822;-73
2021/03/25 07:07:39;;;;;;;17.30;13.70;;;;;;;6.14;60.83;99398.41;5095384;28;40921;-74
2021/03/25 07:10:08;;;;;;;20.30;14.30;;;;;;;6.32;60.55;99395.09;5112269;28;42689;-74
2021/03/25 07:12:40;;;;;;;22.33;14.47;;;;;;;6.50;60.05;99406.72;5094789;28;42141;-73
2021/03/25 07:15:17;;;;;;;20.63;15.47;;;;;;;6.70;60.01;99409.44;5093893;28;39670;-73
2021/03/25 07:17:45;;;;;;;22.27;15.00;;;;;;;6.88;59.68;99402.63;5093918;28;42321;-72
2021/03/25 07:20:20;;;;;;;22.57;15.07;;;;;;;7.12;59.37;99412.19;5114840;28;42877;-74
2021/03/25 07:23:00;;;;;;;22.27;15.27;;;;;;;7.69;58.73;99408.09;5123388;28;42604;-72
2021/03/25 07:25:29;;;;;;;18.67;14.20;;;;;;;8.37;57.75;99408.72;5103780;28;39918;-75
2021/03/25 07:28:00;;;;;;;23.40;16.40;;;;;;;9.31;56.38;99417.50;5091178;28;40365;-76
2021/03/25 07:30:41;;;;;;;20.13;14.70;;;;;;;10.36;54.18;99420.13;5108404;28;41864;-75
2021/03/25 07:33:11;;;;;;;25.33;14.97;;;;;;;11.07;52.04;99436.59;5120589;28;42369;-74
2021/03/25 07:35:41;;;;;;;34.27;23.87;;;;;;;11.62;50.81;99442.28;5112482;28;39530;-74
2021/03/25 07:38:22;;;;;;;25.60;18.00;;;;;;;12.31;48.65;99446.22;5094295;28;40768;-74
2021/03/25 07:41:07;;;;;;;22.17;16.80;;;;;;;13.15;46.64;99440.09;5090118;28;43166;-74
2021/03/25 07:43:54;;;;;;;18.67;15.47;;;;;;;14.18;45.18;99448.34;5091211;28;42630;-74
2021/03/25 07:46:26;;;;;;;23.43;17.10;;;;;;;15.41;42.18;99479.69;5091127;28;40988;-75
2021/03/25 07:49:05;;;;;;;19.00;16.07;;;;;;;16.81;39.30;99485.16;5074295;28;41997;-75
2021/03/25 07:51:42;;;;;;;20.83;17.43;;;;;;;18.17;36.59;99491.09;5088658;28;43418;-73
2021/03/25 07:54:16;;;;;;;20.13;16.10;;;;;;;19.39;35.07;99496.66;5093519;28;42625;-72
2021/03/25 07:56:53;;;;;;;18.43;15.30;;;;;;;20.54;32.90;99503.22;5111733;28;40026;-73
2021/03/25 07:59:46;;;;;;;18.43;16.53;;;;;;;21.39;30.73;99516.63;5123485;27;41694;-75
2021/03/25 08:02:27;;;;;;;18.43;15.20;;;;;;;22.13;30.42;99520.06;5100019;27;43148;-74
2021/03/25 08:04:54;;;;;;;18.07;15.57;;;;;;;22.69;29.11;99515.34;5131326;27;43121;-73
2021/03/25 08:07:23;;;;;;;18.30;15.60;;;;;;;22.61;29.42;99507.19;5113861;27;39590;-75
2021/03/25 08:09:53;;;;;;;19.10;15.77;;;;;;;22.18;29.46;99506.13;5080174;28;40722;-76
2021/03/25 08:12:28;;;;;;;20.47;16.50;;;;;;;21.80;29.27;99510.75;5093888;28;42965;-74
2021/03/25 08:15:28;;;;;;;18.40;16.40;;;;;;;21.08;29.84;99508.78;5109821;28;41997;-75
2021/03/25 08:18:20;;;;;;;18.63;16.67;;;;;;;20.88;30.94;99480.22;5049828;28;39041;-74
2021/03/25 08:20:55;;;;;;;20.73;17.43;;;;;;;21.47;30.42;99503.28;5077049;28;41727;-74
2021/03/25 08:23:46;;;;;;;18.63;15.63;;;;;;;22.39;29.47;99503.94;5111187;28;43577;-74
2021/03/25 08:26:20;;;;;;;18.90;15.53;;;;;;;23.45;28.58;99504.72;5110561;28;42803;-75
2021/03/25 08:28:57;;;;;;;18.73;16.73;;;;;;;24.23;26.82;99521.59;5092754;28;40481;-74
2021/03/25 08:31:42;;;;;;;20.60;16.47;;;;;;;24.59;26.09;99512.16;5093950;28;40624;-73
2021/03/25 08:34:21;;;;;;;18.87;16.97;;;;;;;24.39;25.98;99527.00;5076830;28;42148;-74
2021/03/25 08:37:21;;;;;;;19.43;17.43;;;;;;;24.49;26.35;99522.28;5110985;28;41959;-74
2021/03/25 08:39:53;;;;;;;18.50;16.50;;;;;;;24.67;26.17;99520.25;5108926;28;41899;-73
2021/03/25 08:42:29;;;;;;;19.07;17.07;;;;;;;24.98;26.49;99514.16;5076808;28;40677;-75
2021/03/25 08:45:07;;;;;;;19.07;17.03;;;;;;;25.56;25.09;99519.28;5110784;28;43321;-75
2021/03/25 08:47:45;;;;;;;20.87;17.97;;;;;;;26.20;24.33;99522.72;5111354;28;41924;-75
2021/03/25 08:50:39;;;;;;;21.00;16.20;;;;;;;27.27;23.48;99529.81;5109894;28;40543;-74
2021/03/25 08:53:17;;;;;;;17.90;16.00;;;;;;;28.19;22.58;99539.25;5111300;28;41264;-75
2021/03/25 08:55:45;;;;;;;18.03;16.13;;;;;;;28.64;21.54;99537.22;5093799;28;42693;-76
2021/03/25 08:58:17;;;;;;;18.37;16.57;;;;;;;28.83;21.67;99517.50;5093180;28;41173;-74
2021/03/25 09:00:49;;;;;;;18.23;16.33;;;;;;;29.61;20.42;99542.84;5110082;28;39841;-74
2021/03/25 09:03:22;;;;;;;17.30;15.50;;;;;;;30.27;19.82;99541.25;5093144;28;41810;-76
2021/03/25 09:05:58;;;;;;;17.67;15.90;;;;;;;29.98;20.60;99533.38;5073103;28;41927;-75
2021/03/25 09:08:27;;;;;;;20.03;16.80;;;;;;;29.59;20.86;99526.66;5076525;28;42673;-74
2021/03/25 09:10:58;;;;;;;17.10;15.17;;;;;;;30.27;20.16;99529.50;5092594;28;39633;-78
2021/03/25 09:13:28;;;;;;;18.13;15.50;;;;;;;30.60;19.90;99538.63;5092361;28;41997;-75
2021/03/25 09:15:58;;;;;;;17.87;16.10;;;;;;;31.50;18.65;99515.22;5092406;28;42873;-79
2021/03/25 09:18:28;;;;;;;18.00;16.30;;;;;;;32.83;17.44;99530.84;5072204;28;42489;-74
2021/03/25 09:21:07;;;;;;;19.10;17.20;;;;;;;33.79;17.15;99532.25;5090308;28;39802;-77
2021/03/25 09:23:55;;;;;;;18.97;17.10;;;;;;;33.91;16.70;99532.31;5092182;28;41567;-76
2021/03/25 09:26:46;;;;;;;17.53;15.70;;;;;;;34.15;16.87;99532.22;5087815;28;42719;-77
2021/03/25 09:29:14;;;;;;;17.17;15.37;;;;;;;33.73;16.63;99520.25;5109937;28;43013;-76
2021/03/25 09:32:02;;;;;;;17.23;15.53;;;;;;;33.34;17.02;99537.19;5110442;28;41293;-76
2021/03/25 09:34:45;;;;;;;18.30;16.57;;;;;;;32.84;17.20;99520.72;5108656;28;42239;-76
2021/03/25 09:37:21;;;;;;;16.50;14.90;;;;;;;32.63;17.29;99523.81;5110106;28;42517;-75
2021/03/25 09:40:05;;;;;;;16.90;15.07;;;;;;;32.56;16.90;99520.25;5071163;28;41353;-75
2021/03/25 09:42:32;;;;;;;16.43;14.73;;;;;;;32.50;17.69;99507.44;5090373;28;40821;-76
2021/03/25 09:44:59;;;;;;;16.07;14.37;;;;;;;32.01;18.04;99498.00;5089627;28;41712;-75
2021/03/25 09:47:30;;;;;;;17.63;15.83;;;;;;;31.88;17.94;99504.38;5072563;28;41777;-77
2021/03/25 09:50:17;;;;;;;17.30;15.00;;;;;;;31.86;18.08;99502.91;5072104;28;41958;-76
2021/03/25 09:53:02;;;;;;;16.63;14.80;;;;;;;31.45;18.02;99493.13;5072492;28;39875;-76
2021/03/25 09:55:33;;;;;;;15.93;14.33;;;;;;;31.02;18.81;99488.16;5055584;28;41552;-75
2021/03/25 09:58:01;;;;;;;16.50;14.80;;;;;;;30.81;19.16;99482.88;5072242;28;42794;-74
2021/03/25 10:00:52;;;;;;;16.40;13.53;;;;;;;30.98;18.42;99484.13;5109566;28;42728;-75
2021/03/25 10:03:57;;;;;;;17.33;15.40;;;;;;;31.07;18.56;99484.75;5089254;28;40046;-75
2021/03/25 10:06:50;;;;;;;14.30;12.80;;;;;;;30.98;18.55;99481.41;5055352;28;40599;-76
2021/03/25 10:09:17;;;;;;;15.57;13.13;;;;;;;31.23;18.48;99480.75;5071637;28;42898;-74
2021/03/25 10:11:52;;;;;;;17.33;14.40;;;;;;;31.49;18.25;99475.22;5109576;28;41918;-76
2021/03/25 10:14:53;;;;;;;15.87;14.27;;;;;;;31.92;17.48;99488.34;5109280;28;39662;-76
2021/03/25 10:17:43;;;;;;;15.20;13.70;;;;;;;31.84;17.76;99483.13;5109663;28;41527;-75
2021/03/25 10:20:54;;;;;;;14.60;13.13;;;;;;;31.30;18.61;99470.63;5075445;28;41848;-75
2021/03/25 10:23:26;;;;;;;13.63;12.20;;;;;;;31.66;18.43;99464.63;5091930;28;42106;-76
2021/03/25 10:25:56;;;;;;;13.77;12.47;;;;;;;32.62;17.98;99468.09;5109367;28;40810;-75
2021/03/25 10:28:26;;;;;;;13.97;12.67;;;;;;;33.45;17.64;99451.28;5091542;28;42143;-75
2021/03/25 10:30:59;;;;;;;14.63;13.10;;;;;;;34.64;16.41;99469.72;5109821;28;42654;-77
2021/03/25 10:33:27;;;;;;;12.97;11.67;;;;;;;35.23;15.35;99443.94;5092229;28;42128;-75
2021/03/25 10:35:57;;;;;;;14.23;12.82;;;;;;;35.73;15.03;99481.97;5108409;28;40693;-78
2021/03/25 10:38:30;;;;;;;15.57;13.98;;;;;;;35.97;14.44;99483.59;5091936;28;41744;-77
2021/03/25 10:40:59;;;;;;;13.77;12.37;;;;;;;35.69;14.86;99464.22;5095858;28;42567;-79
2021/03/25 10:43:30;;;;;;;12.50;11.23;;;;;;;35.36;15.16;99458.56;5112956;28;42455;-77
2021/03/25 10:45:59;;;;;;;14.00;12.40;;;;;;;35.47;15.17;99460.47;5112384;28;40701;-75
2021/03/25 10:48:34;;;;;;;12.17;11.00;;;;;;;35.71;14.42;99458.47;5112210;28;42508;-76
2021/03/25 10:51:07;;;;;;;12.60;11.02;;;;;;;35.98;14.17;99457.66;5112487;28;42998;-78
2021/03/25 10:53:39;;;;;;;12.85;11.20;;;;;;;36.57;14.10;99433.41;5094772;28;42167;-76
2021/03/25 10:56:14;;;;;;;12.90;11.07;;;;;;;37.30;13.50;99440.63;5112719;28;39670;-76
2021/03/25 10:58:44;;;;;;;12.70;11.57;;;;;;;37.63;13.04;99447.16;5095697;28;41652;-76
2021/03/25 11:01:20;;;;;;;12.23;11.02;;;;;;;38.32;13.36;99439.09;5095126;28;42702;-76
2021/03/25 11:03:49;;;;;;;15.88;11.88;;;;;;;38.89;12.64;99432.94;5094441;28;42971;-76
2021/03/25 11:06:24;;;;;;;11.73;10.57;;;;;;;39.38;11.97;99437.16;5093672;28;40204;-76
2021/03/25 11:08:53;;;;;;;11.02;9.77;;;;;;;39.85;11.97;99430.72;5077893;28;41979;-77
2021/03/25 11:11:24;;;;;;;9.88;8.05;;;;;;;39.98;11.38;99435.75;5094909;28;42605;-75
2021/03/25 11:13:56;;;;;;;9.93;8.93;;;;;;;39.85;11.74;99426.00;5112107;28;42930;-75
2021/03/25 11:16:24;;;;;;;8.95;7.70;;;;;;;40.06;11.72;99415.78;5112254;28;41282;-75
2021/03/25 11:18:57;;;;;;;9.10;8.20;;;;;;;39.92;11.35;99425.78;5094129;28;41303;-76
2021/03/25 11:21:29;;;;;;;9.00;8.10;;;;;;;39.69;11.20;99415.94;5112887;28;43276;-77
2021/03/25 11:24:06;;;;;;;9.38;8.48;;;;;;;39.74;11.51;99418.75;5112002;28;42046;-76
2021/03/25 11:26:34;;;;;;;9.05;8.15;;;;;;;40.19;11.22;99406.94;5111354;28;40889;-76
2021/03/25 11:29:02;;;;;;;11.10;8.63;;;;;;;40.56;10.89;99391.97;5112336;28;41709;-76
2021/03/25 11:31:31;;;;;;;10.50;8.73;;;;;;;40.11;11.26;99401.94;5094933;28;42764;-74
2021/03/25 11:33:59;;;;;;;9.68;8.68;;;;;;;39.88;11.20;99401.63;5077731;28;42196;-76
2021/03/25 11:36:41;;;;;;;9.68;8.05;;;;;;;39.73;10.95;99394.88;5112249;28;39884;-80
2021/03/25 11:39:12;;;;;;;8.52;7.70;;;;;;;39.55;10.41;99402.88;5094088;28;41746;-79
2021/03/25 11:41:40;;;;;;;8.80;7.78;;;;;;;38.75;11.71;99389.09;5094970;28;42641;-76
2021/03/25 11:44:09;;;;;;;10.30;8.77;;;;;;;37.84;11.72;99384.63;5077743;28;41182;-74
2021/03/25 11:46:39;;;;;;;10.55;8.90;;;;;;;36.89;12.26;99374.81;5112072;28;40563;-73
2021/03/25 11:49:11;;;;;;;10.52;8.10;;;;;;;37.10;13.11;99374.00;5093404;28;41855;-74
2021/03/25 11:51:41;;;;;;;12.65;9.75;;;;;;;37.73;11.92;99367.94;5111675;28;42934;-73
2021/03/25 11:54:25;;;;;;;10.82;9.50;;;;;;;38.26;11.52;99373.72;5093570;28;43177;-74
2021/03/25 11:56:56;;;;;;;11.70;9.48;;;;;;;38.19;11.40;99368.44;5093404;28;40278;-73
2021/03/25 11:59:28;;;;;;;10.93;8.82;;;;;;;38.50;11.34;99363.13;5093094;28;41797;-74
2021/03/25 12:02:23;;;;;;;9.65;8.25;;;;;;;38.42;11.15;99375.53;5093123;28;42731;-74